sensor_id;sensor_type;location;lat;lon;timestamp;P1;durP1;ratioP1;P2;durP2;ratioP2
54555;SDS011;57291;37.520;15.106;2023-12-29T00:01:37;11.15;;;6.18;;
54555;SDS011;57291;37.520;15.106;2023-12-29T00:04:04;8.80;;;5.72;;
54555;SDS011;57291;37.520;15.106;2023-12-29T00:06:32;9.73;;;5.70;;
54555;SDS011;57291;37.520;15.106;2023-12-29T00:08:59;8.65;;;5.53;;
54555;SDS011;57291;37.520;15.106;2023-12-29T00:11:27;9.88;;;5.50;;
54555;SDS011;57291;37.520;15.106;2023-12-29T00:13:54;8.00;;;5.68;;
54555;SDS011;57291;37.520;15.106;2023-12-29T00:16:22;12.27;;;5.43;;
54555;SDS011;57291;37.520;15.106;2023-12-29T00:18:49;10.13;;;6.30;;
54555;SDS011;57291;37.520;15.106;2023-12-29T00:21:17;10.35;;;6.07;;
54555;SDS011;57291;37.520;15.106;2023-12-29T00:23:46;10.55;;;5.85;;
54555;SDS011;57291;37.520;15.106;2023-12-29T00:26:18;8.88;;;5.38;;
54555;SDS011;57291;37.520;15.106;2023-12-29T00:28:52;11.95;;;6.05;;
54555;SDS011;57291;37.520;15.106;2023-12-29T00:31:20;10.25;;;5.47;;
54555;SDS011;57291;37.520;15.106;2023-12-29T00:33:48;11.75;;;5.82;;
54555;SDS011;57291;37.520;15.106;2023-12-29T00:36:19;9.93;;;5.55;;
54555;SDS011;57291;37.520;15.106;2023-12-29T00:38:48;9.70;;;5.32;;
54555;SDS011;57291;37.520;15.106;2023-12-29T00:41:17;9.80;;;5.68;;
54555;SDS011;57291;37.520;15.106;2023-12-29T00:43:44;8.27;;;5.72;;
54555;SDS011;57291;37.520;15.106;2023-12-29T00:46:13;9.63;;;5.63;;
54555;SDS011;57291;37.520;15.106;2023-12-29T00:48:45;8.98;;;5.43;;
54555;SDS011;57291;37.520;15.106;2023-12-29T00:51:13;9.55;;;6.03;;
54555;SDS011;57291;37.520;15.106;2023-12-29T00:53:41;12.40;;;6.10;;
54555;SDS011;57291;37.520;15.106;2023-12-29T00:56:11;10.73;;;5.80;;
54555;SDS011;57291;37.520;15.106;2023-12-29T00:58:39;9.93;;;5.68;;
54555;SDS011;57291;37.520;15.106;2023-12-29T01:01:07;11.13;;;6.25;;
54555;SDS011;57291;37.520;15.106;2023-12-29T01:03:39;14.43;;;6.22;;
54555;SDS011;57291;37.520;15.106;2023-12-29T01:06:06;10.23;;;5.90;;
54555;SDS011;57291;37.520;15.106;2023-12-29T01:08:34;8.40;;;6.15;;
54555;SDS011;57291;37.520;15.106;2023-12-29T01:11:03;11.40;;;6.07;;
54555;SDS011;57291;37.520;15.106;2023-12-29T01:13:30;8.82;;;5.30;;
54555;SDS011;57291;37.520;15.106;2023-12-29T01:15:58;12.02;;;6.32;;
54555;SDS011;57291;37.520;15.106;2023-12-29T01:18:26;9.80;;;5.35;;
54555;SDS011;57291;37.520;15.106;2023-12-29T01:20:53;9.35;;;6.03;;
54555;SDS011;57291;37.520;15.106;2023-12-29T01:23:21;8.43;;;5.55;;
54555;SDS011;57291;37.520;15.106;2023-12-29T01:25:48;10.15;;;5.43;;
54555;SDS011;57291;37.520;15.106;2023-12-29T01:28:16;8.93;;;5.95;;
54555;SDS011;57291;37.520;15.106;2023-12-29T01:30:43;10.05;;;5.63;;
54555;SDS011;57291;37.520;15.106;2023-12-29T01:33:11;9.70;;;5.60;;
54555;SDS011;57291;37.520;15.106;2023-12-29T01:35:39;11.10;;;5.97;;
54555;SDS011;57291;37.520;15.106;2023-12-29T01:38:06;11.73;;;5.70;;
54555;SDS011;57291;37.520;15.106;2023-12-29T01:40:42;8.68;;;5.97;;
54555;SDS011;57291;37.520;15.106;2023-12-29T01:43:10;8.48;;;5.75;;
54555;SDS011;57291;37.520;15.106;2023-12-29T01:45:38;8.85;;;5.43;;
54555;SDS011;57291;37.520;15.106;2023-12-29T01:48:18;8.45;;;5.68;;
54555;SDS011;57291;37.520;15.106;2023-12-29T01:50:46;10.85;;;6.47;;
54555;SDS011;57291;37.520;15.106;2023-12-29T01:53:14;10.15;;;6.20;;
54555;SDS011;57291;37.520;15.106;2023-12-29T01:55:42;9.82;;;5.68;;
54555;SDS011;57291;37.520;15.106;2023-12-29T01:58:10;9.63;;;6.07;;
54555;SDS011;57291;37.520;15.106;2023-12-29T02:00:38;10.35;;;6.30;;
54555;SDS011;57291;37.520;15.106;2023-12-29T02:03:06;9.45;;;5.85;;
54555;SDS011;57291;37.520;15.106;2023-12-29T02:05:34;12.75;;;5.80;;
54555;SDS011;57291;37.520;15.106;2023-12-29T02:08:03;10.10;;;5.72;;
54555;SDS011;57291;37.520;15.106;2023-12-29T02:10:35;10.70;;;6.47;;
54555;SDS011;57291;37.520;15.106;2023-12-29T02:13:03;11.05;;;5.97;;
54555;SDS011;57291;37.520;15.106;2023-12-29T02:15:30;9.75;;;5.97;;
54555;SDS011;57291;37.520;15.106;2023-12-29T02:17:59;9.23;;;5.60;;
54555;SDS011;57291;37.520;15.106;2023-12-29T02:20:30;9.48;;;5.75;;
54555;SDS011;57291;37.520;15.106;2023-12-29T02:22:58;8.98;;;5.57;;
54555;SDS011;57291;37.520;15.106;2023-12-29T02:25:25;9.18;;;5.38;;
54555;SDS011;57291;37.520;15.106;2023-12-29T02:28:03;10.50;;;5.88;;
54555;SDS011;57291;37.520;15.106;2023-12-29T02:33:19;9.85;;;5.90;;
54555;SDS011;57291;37.520;15.106;2023-12-29T02:35:51;9.60;;;5.30;;
54555;SDS011;57291;37.520;15.106;2023-12-29T02:38:22;9.93;;;5.50;;
54555;SDS011;57291;37.520;15.106;2023-12-29T02:40:50;11.32;;;5.40;;
54555;SDS011;57291;37.520;15.106;2023-12-29T02:43:17;8.73;;;5.18;;
54555;SDS011;57291;37.520;15.106;2023-12-29T02:45:45;8.57;;;5.57;;
54555;SDS011;57291;37.520;15.106;2023-12-29T02:48:12;8.73;;;5.40;;
54555;SDS011;57291;37.520;15.106;2023-12-29T02:50:40;8.95;;;5.03;;
54555;SDS011;57291;37.520;15.106;2023-12-29T02:53:08;8.07;;;5.20;;
54555;SDS011;57291;37.520;15.106;2023-12-29T02:55:36;8.45;;;5.07;;
54555;SDS011;57291;37.520;15.106;2023-12-29T02:58:04;8.85;;;5.28;;
54555;SDS011;57291;37.520;15.106;2023-12-29T03:00:32;10.18;;;5.13;;
54555;SDS011;57291;37.520;15.106;2023-12-29T03:03:01;9.85;;;5.40;;
54555;SDS011;57291;37.520;15.106;2023-12-29T03:05:29;7.82;;;4.78;;
54555;SDS011;57291;37.520;15.106;2023-12-29T03:07:57;11.73;;;5.85;;
54555;SDS011;57291;37.520;15.106;2023-12-29T03:10:25;9.15;;;5.30;;
54555;SDS011;57291;37.520;15.106;2023-12-29T03:12:53;10.07;;;5.40;;
54555;SDS011;57291;37.520;15.106;2023-12-29T03:15:21;8.90;;;5.18;;
54555;SDS011;57291;37.520;15.106;2023-12-29T03:17:48;10.98;;;5.97;;
54555;SDS011;57291;37.520;15.106;2023-12-29T03:20:16;10.52;;;5.63;;
54555;SDS011;57291;37.520;15.106;2023-12-29T03:22:43;9.63;;;5.57;;
54555;SDS011;57291;37.520;15.106;2023-12-29T03:25:11;8.68;;;5.38;;
54555;SDS011;57291;37.520;15.106;2023-12-29T03:27:39;10.25;;;6.05;;
54555;SDS011;57291;37.520;15.106;2023-12-29T03:30:07;9.95;;;6.07;;
54555;SDS011;57291;37.520;15.106;2023-12-29T03:32:34;11.15;;;6.30;;
54555;SDS011;57291;37.520;15.106;2023-12-29T03:35:02;9.45;;;6.00;;
54555;SDS011;57291;37.520;15.106;2023-12-29T03:37:30;12.98;;;6.20;;
54555;SDS011;57291;37.520;15.106;2023-12-29T03:39:57;14.77;;;6.63;;
54555;SDS011;57291;37.520;15.106;2023-12-29T03:42:25;7.97;;;5.80;;
54555;SDS011;57291;37.520;15.106;2023-12-29T03:44:52;9.70;;;6.13;;
54555;SDS011;57291;37.520;15.106;2023-12-29T03:47:21;9.25;;;5.55;;
54555;SDS011;57291;37.520;15.106;2023-12-29T03:49:49;9.73;;;5.50;;
54555;SDS011;57291;37.520;15.106;2023-12-29T03:52:16;8.05;;;5.13;;
54555;SDS011;57291;37.520;15.106;2023-12-29T03:54:43;11.13;;;5.45;;
54555;SDS011;57291;37.520;15.106;2023-12-29T03:57:11;8.43;;;5.25;;
54555;SDS011;57291;37.520;15.106;2023-12-29T03:59:39;9.32;;;5.25;;
54555;SDS011;57291;37.520;15.106;2023-12-29T04:02:07;11.00;;;5.22;;
54555;SDS011;57291;37.520;15.106;2023-12-29T04:04:37;10.07;;;5.63;;
54555;SDS011;57291;37.520;15.106;2023-12-29T04:07:06;7.38;;;4.82;;
54555;SDS011;57291;37.520;15.106;2023-12-29T04:09:33;9.35;;;4.68;;
54555;SDS011;57291;37.520;15.106;2023-12-29T04:12:01;8.90;;;4.70;;
54555;SDS011;57291;37.520;15.106;2023-12-29T04:14:28;6.20;;;4.35;;
54555;SDS011;57291;37.520;15.106;2023-12-29T04:16:56;6.55;;;4.47;;
54555;SDS011;57291;37.520;15.106;2023-12-29T04:19:23;7.20;;;4.90;;
54555;SDS011;57291;37.520;15.106;2023-12-29T04:21:51;8.32;;;5.68;;
54555;SDS011;57291;37.520;15.106;2023-12-29T04:24:19;11.82;;;5.70;;
54555;SDS011;57291;37.520;15.106;2023-12-29T04:26:47;7.68;;;5.13;;
54555;SDS011;57291;37.520;15.106;2023-12-29T04:29:14;8.93;;;5.10;;
54555;SDS011;57291;37.520;15.106;2023-12-29T04:31:41;6.00;;;4.53;;
54555;SDS011;57291;37.520;15.106;2023-12-29T04:34:13;7.03;;;4.72;;
54555;SDS011;57291;37.520;15.106;2023-12-29T04:36:40;7.20;;;4.40;;
54555;SDS011;57291;37.520;15.106;2023-12-29T04:39:08;8.02;;;4.53;;
54555;SDS011;57291;37.520;15.106;2023-12-29T04:41:36;8.10;;;4.72;;
54555;SDS011;57291;37.520;15.106;2023-12-29T04:44:03;7.85;;;4.55;;
54555;SDS011;57291;37.520;15.106;2023-12-29T04:46:31;5.85;;;3.75;;
54555;SDS011;57291;37.520;15.106;2023-12-29T04:48:58;7.75;;;4.07;;
54555;SDS011;57291;37.520;15.106;2023-12-29T04:51:26;7.57;;;4.47;;
54555;SDS011;57291;37.520;15.106;2023-12-29T04:53:53;8.95;;;5.05;;
54555;SDS011;57291;37.520;15.106;2023-12-29T04:56:25;6.63;;;4.72;;
54555;SDS011;57291;37.520;15.106;2023-12-29T04:58:52;7.30;;;4.97;;
54555;SDS011;57291;37.520;15.106;2023-12-29T05:01:20;7.63;;;5.13;;
54555;SDS011;57291;37.520;15.106;2023-12-29T05:03:47;6.78;;;4.85;;
54555;SDS011;57291;37.520;15.106;2023-12-29T05:06:18;8.60;;;5.07;;
54555;SDS011;57291;37.520;15.106;2023-12-29T05:08:47;9.82;;;4.90;;
54555;SDS011;57291;37.520;15.106;2023-12-29T05:11:14;8.75;;;4.93;;
54555;SDS011;57291;37.520;15.106;2023-12-29T05:13:41;6.53;;;4.47;;
54555;SDS011;57291;37.520;15.106;2023-12-29T05:16:09;8.38;;;4.40;;
54555;SDS011;57291;37.520;15.106;2023-12-29T05:18:36;7.13;;;4.57;;
54555;SDS011;57291;37.520;15.106;2023-12-29T05:21:04;8.15;;;4.10;;
54555;SDS011;57291;37.520;15.106;2023-12-29T05:23:32;8.60;;;4.43;;
54555;SDS011;57291;37.520;15.106;2023-12-29T05:25:59;5.75;;;3.70;;
54555;SDS011;57291;37.520;15.106;2023-12-29T05:28:27;5.90;;;4.00;;
54555;SDS011;57291;37.520;15.106;2023-12-29T05:30:55;9.18;;;4.90;;
54555;SDS011;57291;37.520;15.106;2023-12-29T05:33:22;7.72;;;4.47;;
54555;SDS011;57291;37.520;15.106;2023-12-29T05:35:50;7.97;;;3.17;;
54555;SDS011;57291;37.520;15.106;2023-12-29T05:38:17;4.90;;;3.00;;
54555;SDS011;57291;37.520;15.106;2023-12-29T05:40:45;6.35;;;3.40;;
54555;SDS011;57291;37.520;15.106;2023-12-29T05:43:12;8.05;;;3.17;;
54555;SDS011;57291;37.520;15.106;2023-12-29T05:45:40;6.85;;;3.00;;
54555;SDS011;57291;37.520;15.106;2023-12-29T05:48:10;4.63;;;2.83;;
54555;SDS011;57291;37.520;15.106;2023-12-29T05:50:40;4.20;;;2.42;;
54555;SDS011;57291;37.520;15.106;2023-12-29T05:53:08;10.27;;;2.95;;
54555;SDS011;57291;37.520;15.106;2023-12-29T05:55:36;6.22;;;3.10;;
54555;SDS011;57291;37.520;15.106;2023-12-29T05:58:03;4.90;;;2.90;;
54555;SDS011;57291;37.520;15.106;2023-12-29T06:00:32;4.63;;;2.60;;
54555;SDS011;57291;37.520;15.106;2023-12-29T06:02:59;6.93;;;2.58;;
54555;SDS011;57291;37.520;15.106;2023-12-29T06:05:27;4.72;;;2.95;;
54555;SDS011;57291;37.520;15.106;2023-12-29T06:07:55;6.80;;;3.08;;
54555;SDS011;57291;37.520;15.106;2023-12-29T06:10:23;5.50;;;2.92;;
54555;SDS011;57291;37.520;15.106;2023-12-29T06:12:51;4.90;;;2.95;;
54555;SDS011;57291;37.520;15.106;2023-12-29T06:15:18;4.65;;;2.78;;
54555;SDS011;57291;37.520;15.106;2023-12-29T06:17:47;5.25;;;2.88;;
54555;SDS011;57291;37.520;15.106;2023-12-29T06:20:14;6.30;;;3.67;;
54555;SDS011;57291;37.520;15.106;2023-12-29T06:22:42;7.43;;;4.43;;
54555;SDS011;57291;37.520;15.106;2023-12-29T06:25:11;15.48;;;9.48;;
54555;SDS011;57291;37.520;15.106;2023-12-29T06:27:39;12.77;;;7.47;;
54555;SDS011;57291;37.520;15.106;2023-12-29T06:30:07;10.85;;;7.15;;
54555;SDS011;57291;37.520;15.106;2023-12-29T06:32:36;14.00;;;7.30;;
54555;SDS011;57291;37.520;15.106;2023-12-29T06:35:04;11.93;;;6.30;;
54555;SDS011;57291;37.520;15.106;2023-12-29T06:37:32;13.32;;;6.88;;
54555;SDS011;57291;37.520;15.106;2023-12-29T06:40:03;12.15;;;6.70;;
54555;SDS011;57291;37.520;15.106;2023-12-29T06:42:31;11.93;;;6.57;;
54555;SDS011;57291;37.520;15.106;2023-12-29T06:44:59;11.73;;;6.25;;
54555;SDS011;57291;37.520;15.106;2023-12-29T06:47:26;12.43;;;6.78;;
54555;SDS011;57291;37.520;15.106;2023-12-29T06:49:54;12.57;;;7.45;;
54555;SDS011;57291;37.520;15.106;2023-12-29T06:52:21;12.15;;;7.93;;
54555;SDS011;57291;37.520;15.106;2023-12-29T06:54:49;13.70;;;9.57;;
54555;SDS011;57291;37.520;15.106;2023-12-29T06:57:16;18.00;;;8.98;;
54555;SDS011;57291;37.520;15.106;2023-12-29T06:59:45;13.02;;;9.00;;
54555;SDS011;57291;37.520;15.106;2023-12-29T07:02:12;15.30;;;8.82;;
54555;SDS011;57291;37.520;15.106;2023-12-29T07:04:41;16.23;;;9.02;;
54555;SDS011;57291;37.520;15.106;2023-12-29T07:07:10;15.27;;;8.38;;
54555;SDS011;57291;37.520;15.106;2023-12-29T07:09:38;11.63;;;7.63;;
54555;SDS011;57291;37.520;15.106;2023-12-29T07:12:07;13.65;;;7.82;;
54555;SDS011;57291;37.520;15.106;2023-12-29T07:14:35;14.13;;;7.55;;
54555;SDS011;57291;37.520;15.106;2023-12-29T07:17:03;11.35;;;6.40;;
54555;SDS011;57291;37.520;15.106;2023-12-29T07:19:30;13.57;;;6.70;;
54555;SDS011;57291;37.520;15.106;2023-12-29T07:22:04;10.82;;;6.80;;
54555;SDS011;57291;37.520;15.106;2023-12-29T07:24:33;11.75;;;6.72;;
54555;SDS011;57291;37.520;15.106;2023-12-29T07:27:03;14.43;;;6.88;;
54555;SDS011;57291;37.520;15.106;2023-12-29T07:29:31;15.18;;;7.63;;
54555;SDS011;57291;37.520;15.106;2023-12-29T07:31:58;14.80;;;7.20;;
54555;SDS011;57291;37.520;15.106;2023-12-29T07:34:26;13.82;;;7.18;;
54555;SDS011;57291;37.520;15.106;2023-12-29T07:36:56;16.15;;;7.40;;
54555;SDS011;57291;37.520;15.106;2023-12-29T07:39:25;13.90;;;6.70;;
54555;SDS011;57291;37.520;15.106;2023-12-29T07:41:52;13.93;;;6.85;;
54555;SDS011;57291;37.520;15.106;2023-12-29T07:44:22;11.73;;;6.97;;
54555;SDS011;57291;37.520;15.106;2023-12-29T07:46:50;13.05;;;6.85;;
54555;SDS011;57291;37.520;15.106;2023-12-29T07:49:17;13.30;;;6.90;;
54555;SDS011;57291;37.520;15.106;2023-12-29T07:51:46;15.05;;;7.32;;
54555;SDS011;57291;37.520;15.106;2023-12-29T07:54:14;12.27;;;7.40;;
54555;SDS011;57291;37.520;15.106;2023-12-29T07:56:42;13.35;;;7.60;;
54555;SDS011;57291;37.520;15.106;2023-12-29T07:59:10;14.50;;;7.97;;
54555;SDS011;57291;37.520;15.106;2023-12-29T08:01:39;17.48;;;8.70;;
54555;SDS011;57291;37.520;15.106;2023-12-29T08:04:07;18.00;;;8.05;;
54555;SDS011;57291;37.520;15.106;2023-12-29T08:06:37;21.95;;;8.73;;
54555;SDS011;57291;37.520;15.106;2023-12-29T08:09:06;17.40;;;7.70;;
54555;SDS011;57291;37.520;15.106;2023-12-29T08:11:36;18.65;;;8.57;;
54555;SDS011;57291;37.520;15.106;2023-12-29T08:14:03;16.52;;;8.93;;
54555;SDS011;57291;37.520;15.106;2023-12-29T08:16:31;16.13;;;8.65;;
54555;SDS011;57291;37.520;15.106;2023-12-29T08:18:59;20.40;;;9.18;;
54555;SDS011;57291;37.520;15.106;2023-12-29T08:21:26;18.23;;;10.32;;
54555;SDS011;57291;37.520;15.106;2023-12-29T08:23:54;16.10;;;9.60;;
54555;SDS011;57291;37.520;15.106;2023-12-29T08:26:22;19.55;;;9.60;;
54555;SDS011;57291;37.520;15.106;2023-12-29T08:28:50;18.20;;;10.23;;
54555;SDS011;57291;37.520;15.106;2023-12-29T08:31:18;14.93;;;9.25;;
54555;SDS011;57291;37.520;15.106;2023-12-29T08:33:47;22.10;;;11.60;;
54555;SDS011;57291;37.520;15.106;2023-12-29T08:36:20;16.70;;;10.07;;
54555;SDS011;57291;37.520;15.106;2023-12-29T08:38:49;19.50;;;10.20;;
54555;SDS011;57291;37.520;15.106;2023-12-29T08:41:16;25.95;;;11.77;;
54555;SDS011;57291;37.520;15.106;2023-12-29T08:43:44;22.65;;;9.80;;
54555;SDS011;57291;37.520;15.106;2023-12-29T08:46:12;21.75;;;10.55;;
54555;SDS011;57291;37.520;15.106;2023-12-29T08:48:39;22.60;;;10.18;;
54555;SDS011;57291;37.520;15.106;2023-12-29T08:51:07;18.95;;;10.45;;
54555;SDS011;57291;37.520;15.106;2023-12-29T08:53:34;18.33;;;10.15;;
54555;SDS011;57291;37.520;15.106;2023-12-29T08:56:02;18.05;;;9.15;;
54555;SDS011;57291;37.520;15.106;2023-12-29T08:58:30;17.30;;;9.13;;
54555;SDS011;57291;37.520;15.106;2023-12-29T09:00:58;20.27;;;9.50;;
54555;SDS011;57291;37.520;15.106;2023-12-29T09:03:26;15.23;;;6.85;;
54555;SDS011;57291;37.520;15.106;2023-12-29T09:05:53;13.65;;;5.97;;
54555;SDS011;57291;37.520;15.106;2023-12-29T09:08:21;13.25;;;5.88;;
54555;SDS011;57291;37.520;15.106;2023-12-29T09:10:48;8.32;;;4.70;;
54555;SDS011;57291;37.520;15.106;2023-12-29T09:13:16;4.57;;;2.45;;
54555;SDS011;57291;37.520;15.106;2023-12-29T09:15:45;5.35;;;2.95;;
54555;SDS011;57291;37.520;15.106;2023-12-29T09:18:13;5.55;;;1.90;;
54555;SDS011;57291;37.520;15.106;2023-12-29T09:20:41;3.10;;;1.60;;
54555;SDS011;57291;37.520;15.106;2023-12-29T09:23:09;6.63;;;2.38;;
54555;SDS011;57291;37.520;15.106;2023-12-29T09:25:37;4.70;;;2.00;;
54555;SDS011;57291;37.520;15.106;2023-12-29T09:28:05;5.30;;;2.10;;
54555;SDS011;57291;37.520;15.106;2023-12-29T09:30:32;5.95;;;2.00;;
54555;SDS011;57291;37.520;15.106;2023-12-29T09:32:59;6.05;;;2.00;;
54555;SDS011;57291;37.520;15.106;2023-12-29T09:35:27;4.05;;;1.85;;
54555;SDS011;57291;37.520;15.106;2023-12-29T09:37:54;5.63;;;2.30;;
54555;SDS011;57291;37.520;15.106;2023-12-29T09:40:22;4.68;;;2.15;;
54555;SDS011;57291;37.520;15.106;2023-12-29T09:42:53;6.63;;;2.75;;
54555;SDS011;57291;37.520;15.106;2023-12-29T09:45:23;6.15;;;2.90;;
54555;SDS011;57291;37.520;15.106;2023-12-29T09:47:52;5.80;;;2.97;;
54555;SDS011;57291;37.520;15.106;2023-12-29T09:50:22;6.72;;;3.67;;
54555;SDS011;57291;37.520;15.106;2023-12-29T09:52:52;6.10;;;3.42;;
54555;SDS011;57291;37.520;15.106;2023-12-29T09:55:20;15.35;;;9.35;;
54555;SDS011;57291;37.520;15.106;2023-12-29T09:57:48;10.98;;;4.80;;
54555;SDS011;57291;37.520;15.106;2023-12-29T10:00:17;10.82;;;4.45;;
54555;SDS011;57291;37.520;15.106;2023-12-29T10:02:48;9.73;;;4.10;;
54555;SDS011;57291;37.520;15.106;2023-12-29T10:05:20;9.85;;;4.80;;
54555;SDS011;57291;37.520;15.106;2023-12-29T10:07:47;5.40;;;3.78;;
54555;SDS011;57291;37.520;15.106;2023-12-29T10:10:16;13.88;;;4.03;;
54555;SDS011;57291;37.520;15.106;2023-12-29T10:12:44;6.97;;;4.22;;
54555;SDS011;57291;37.520;15.106;2023-12-29T10:15:22;8.20;;;3.65;;
54555;SDS011;57291;37.520;15.106;2023-12-29T10:23:45;5.20;;;3.22;;
54555;SDS011;57291;37.520;15.106;2023-12-29T10:26:17;7.18;;;3.80;;
54555;SDS011;57291;37.520;15.106;2023-12-29T10:28:46;7.38;;;3.67;;
54555;SDS011;57291;37.520;15.106;2023-12-29T10:31:15;14.32;;;6.15;;
54555;SDS011;57291;37.520;15.106;2023-12-29T10:33:45;16.50;;;10.75;;
54555;SDS011;57291;37.520;15.106;2023-12-29T10:36:18;23.05;;;11.60;;
54555;SDS011;57291;37.520;15.106;2023-12-29T10:38:45;19.23;;;10.38;;
54555;SDS011;57291;37.520;15.106;2023-12-29T10:41:16;15.88;;;8.48;;
54555;SDS011;57291;37.520;15.106;2023-12-29T10:43:46;17.30;;;7.93;;
54555;SDS011;57291;37.520;15.106;2023-12-29T10:46:21;10.95;;;6.63;;
54555;SDS011;57291;37.520;15.106;2023-12-29T10:48:52;16.08;;;7.97;;
54555;SDS011;57291;37.520;15.106;2023-12-29T10:51:26;17.48;;;8.18;;
54555;SDS011;57291;37.520;15.106;2023-12-29T10:53:55;13.88;;;7.72;;
54555;SDS011;57291;37.520;15.106;2023-12-29T10:56:25;10.85;;;5.97;;
54555;SDS011;57291;37.520;15.106;2023-12-29T10:59:00;13.32;;;5.65;;
54555;SDS011;57291;37.520;15.106;2023-12-29T11:01:33;8.88;;;5.80;;
54555;SDS011;57291;37.520;15.106;2023-12-29T11:04:02;9.57;;;5.40;;
54555;SDS011;57291;37.520;15.106;2023-12-29T11:06:41;10.82;;;3.58;;
54555;SDS011;57291;37.520;15.106;2023-12-29T11:09:12;5.28;;;3.05;;
54555;SDS011;57291;37.520;15.106;2023-12-29T11:11:39;8.75;;;3.20;;
54555;SDS011;57291;37.520;15.106;2023-12-29T11:14:07;6.53;;;3.35;;
54555;SDS011;57291;37.520;15.106;2023-12-29T11:16:38;5.15;;;2.70;;
54555;SDS011;57291;37.520;15.106;2023-12-29T11:19:08;14.15;;;4.13;;
54555;SDS011;57291;37.520;15.106;2023-12-29T11:21:39;4.97;;;2.80;;
54555;SDS011;57291;37.520;15.106;2023-12-29T11:24:09;5.03;;;2.85;;
54555;SDS011;57291;37.520;15.106;2023-12-29T11:26:40;4.50;;;2.80;;
54555;SDS011;57291;37.520;15.106;2023-12-29T11:29:08;5.88;;;2.70;;
54555;SDS011;57291;37.520;15.106;2023-12-29T11:31:40;4.50;;;2.85;;
54555;SDS011;57291;37.520;15.106;2023-12-29T11:34:20;7.00;;;3.25;;
54555;SDS011;57291;37.520;15.106;2023-12-29T11:36:56;5.78;;;3.13;;
54555;SDS011;57291;37.520;15.106;2023-12-29T11:39:37;7.18;;;2.72;;
54555;SDS011;57291;37.520;15.106;2023-12-29T11:42:19;4.47;;;2.28;;
54555;SDS011;57291;37.520;15.106;2023-12-29T11:44:50;6.35;;;2.45;;
54555;SDS011;57291;37.520;15.106;2023-12-29T11:50:27;7.43;;;2.80;;
54555;SDS011;57291;37.520;15.106;2023-12-29T11:52:58;6.03;;;3.53;;
54555;SDS011;57291;37.520;15.106;2023-12-29T11:55:36;6.85;;;3.17;;
54555;SDS011;57291;37.520;15.106;2023-12-29T11:58:05;5.15;;;3.00;;
54555;SDS011;57291;37.520;15.106;2023-12-29T12:00:51;5.18;;;2.78;;
54555;SDS011;57291;37.520;15.106;2023-12-29T12:03:25;5.55;;;2.80;;
54555;SDS011;57291;37.520;15.106;2023-12-29T12:05:55;4.25;;;2.65;;
54555;SDS011;57291;37.520;15.106;2023-12-29T12:08:35;6.90;;;2.65;;
54555;SDS011;57291;37.520;15.106;2023-12-29T12:14:01;8.20;;;3.38;;
54555;SDS011;57291;37.520;15.106;2023-12-29T12:19:20;6.97;;;3.60;;
54555;SDS011;57291;37.520;15.106;2023-12-29T12:21:51;5.93;;;3.67;;
54555;SDS011;57291;37.520;15.106;2023-12-29T12:24:22;9.07;;;4.00;;
54555;SDS011;57291;37.520;15.106;2023-12-29T12:26:49;6.18;;;3.70;;
54555;SDS011;57291;37.520;15.106;2023-12-29T12:29:18;5.00;;;3.10;;
54555;SDS011;57291;37.520;15.106;2023-12-29T12:31:53;10.65;;;3.78;;
54555;SDS011;57291;37.520;15.106;2023-12-29T12:34:24;5.13;;;3.20;;
54555;SDS011;57291;37.520;15.106;2023-12-29T12:36:52;5.93;;;3.70;;
54555;SDS011;57291;37.520;15.106;2023-12-29T12:39:23;6.68;;;3.60;;
54555;SDS011;57291;37.520;15.106;2023-12-29T12:41:51;7.30;;;3.40;;
54555;SDS011;57291;37.520;15.106;2023-12-29T12:44:19;6.40;;;3.03;;
54555;SDS011;57291;37.520;15.106;2023-12-29T12:49:14;6.28;;;2.80;;
54555;SDS011;57291;37.520;15.106;2023-12-29T12:51:43;3.90;;;2.67;;
54555;SDS011;57291;37.520;15.106;2023-12-29T12:54:11;4.57;;;3.00;;
54555;SDS011;57291;37.520;15.106;2023-12-29T12:56:41;6.55;;;2.70;;
54555;SDS011;57291;37.520;15.106;2023-12-29T12:59:10;6.57;;;3.15;;
54555;SDS011;57291;37.520;15.106;2023-12-29T13:01:38;4.40;;;2.67;;
54555;SDS011;57291;37.520;15.106;2023-12-29T13:04:07;4.65;;;2.50;;
54555;SDS011;57291;37.520;15.106;2023-12-29T13:06:40;6.15;;;3.08;;
54555;SDS011;57291;37.520;15.106;2023-12-29T13:09:15;6.85;;;2.95;;
54555;SDS011;57291;37.520;15.106;2023-12-29T13:11:46;6.47;;;2.35;;
54555;SDS011;57291;37.520;15.106;2023-12-29T13:14:21;4.40;;;1.90;;
54555;SDS011;57291;37.520;15.106;2023-12-29T13:16:50;5.32;;;2.03;;
54555;SDS011;57291;37.520;15.106;2023-12-29T13:19:18;6.97;;;2.38;;
54555;SDS011;57291;37.520;15.106;2023-12-29T13:21:52;4.75;;;1.98;;
54555;SDS011;57291;37.520;15.106;2023-12-29T13:24:23;5.30;;;2.33;;
54555;SDS011;57291;37.520;15.106;2023-12-29T13:26:57;6.43;;;2.20;;
54555;SDS011;57291;37.520;15.106;2023-12-29T13:29:28;8.25;;;2.20;;
54555;SDS011;57291;37.520;15.106;2023-12-29T13:32:03;5.97;;;2.30;;
54555;SDS011;57291;37.520;15.106;2023-12-29T13:34:46;6.60;;;2.45;;
54555;SDS011;57291;37.520;15.106;2023-12-29T13:37:25;4.82;;;2.55;;
54555;SDS011;57291;37.520;15.106;2023-12-29T13:42:50;3.58;;;2.38;;
54555;SDS011;57291;37.520;15.106;2023-12-29T13:45:22;6.20;;;2.40;;
54555;SDS011;57291;37.520;15.106;2023-12-29T13:47:51;6.18;;;2.70;;
54555;SDS011;57291;37.520;15.106;2023-12-29T13:50:21;4.93;;;2.70;;
54555;SDS011;57291;37.520;15.106;2023-12-29T13:52:49;5.45;;;3.17;;
54555;SDS011;57291;37.520;15.106;2023-12-29T13:55:23;4.30;;;2.75;;
54555;SDS011;57291;37.520;15.106;2023-12-29T13:57:52;5.88;;;3.35;;
54555;SDS011;57291;37.520;15.106;2023-12-29T14:00:21;5.53;;;2.92;;
54555;SDS011;57291;37.520;15.106;2023-12-29T14:10:31;7.32;;;3.10;;
54555;SDS011;57291;37.520;15.106;2023-12-29T14:13:15;5.75;;;2.83;;
54555;SDS011;57291;37.520;15.106;2023-12-29T14:15:45;5.88;;;3.20;;
54555;SDS011;57291;37.520;15.106;2023-12-29T14:18:37;10.48;;;3.17;;
54555;SDS011;57291;37.520;15.106;2023-12-29T14:26:37;4.88;;;3.20;;
54555;SDS011;57291;37.520;15.106;2023-12-29T14:29:08;6.07;;;3.50;;
54555;SDS011;57291;37.520;15.106;2023-12-29T14:31:43;5.85;;;3.00;;
54555;SDS011;57291;37.520;15.106;2023-12-29T14:34:11;5.82;;;3.17;;
54555;SDS011;57291;37.520;15.106;2023-12-29T14:36:40;4.30;;;2.75;;
54555;SDS011;57291;37.520;15.106;2023-12-29T14:39:08;7.43;;;3.70;;
54555;SDS011;57291;37.520;15.106;2023-12-29T14:41:39;5.47;;;3.65;;
54555;SDS011;57291;37.520;15.106;2023-12-29T14:44:07;8.70;;;3.40;;
54555;SDS011;57291;37.520;15.106;2023-12-29T14:46:35;7.35;;;3.47;;
54555;SDS011;57291;37.520;15.106;2023-12-29T14:49:04;6.03;;;3.70;;
54555;SDS011;57291;37.520;15.106;2023-12-29T14:51:33;5.70;;;3.05;;
54555;SDS011;57291;37.520;15.106;2023-12-29T14:54:00;7.70;;;3.00;;
54555;SDS011;57291;37.520;15.106;2023-12-29T14:56:30;7.05;;;3.10;;
54555;SDS011;57291;37.520;15.106;2023-12-29T14:58:58;4.30;;;2.58;;
54555;SDS011;57291;37.520;15.106;2023-12-29T15:01:26;7.60;;;3.08;;
54555;SDS011;57291;37.520;15.106;2023-12-29T15:03:54;6.72;;;3.67;;
54555;SDS011;57291;37.520;15.106;2023-12-29T15:06:22;8.50;;;3.22;;
54555;SDS011;57291;37.520;15.106;2023-12-29T15:08:50;6.97;;;3.20;;
54555;SDS011;57291;37.520;15.106;2023-12-29T15:11:17;5.10;;;3.03;;
54555;SDS011;57291;37.520;15.106;2023-12-29T15:13:48;6.05;;;3.53;;
54555;SDS011;57291;37.520;15.106;2023-12-29T15:16:16;8.13;;;3.40;;